sensor_id;sensor_type;location;lat;lon;timestamp;temperature;humidity
75685;HTU21D;64298;46.050;38.164;2023-04-10T00:00:02;10.09;82.17
75685;HTU21D;64298;46.050;38.164;2023-04-10T00:02:30;10.06;82.04
75685;HTU21D;64298;46.050;38.164;2023-04-10T00:04:56;10.04;82.27
75685;HTU21D;64298;46.050;38.164;2023-04-10T00:07:22;9.99;82.26
75685;HTU21D;64298;46.050;38.164;2023-04-10T00:09:51;9.97;82.59
75685;HTU21D;64298;46.050;38.164;2023-04-10T00:12:19;9.95;82.76
75685;HTU21D;64298;46.050;38.164;2023-04-10T00:14:45;9.95;82.68
75685;HTU21D;64298;46.050;38.164;2023-04-10T00:17:11;9.96;82.52
75685;HTU21D;64298;46.050;38.164;2023-04-10T00:19:37;9.95;82.59
75685;HTU21D;64298;46.050;38.164;2023-04-10T00:22:08;9.95;82.55
75685;HTU21D;64298;46.050;38.164;2023-04-10T00:24:38;9.94;82.49
75685;HTU21D;64298;46.050;38.164;2023-04-10T00:27:04;9.95;82.42
75685;HTU21D;64298;46.050;38.164;2023-04-10T00:29:33;9.94;82.52
75685;HTU21D;64298;46.050;38.164;2023-04-10T00:32:01;9.92;82.53
75685;HTU21D;64298;46.050;38.164;2023-04-10T00:34:27;9.91;82.42
75685;HTU21D;64298;46.050;38.164;2023-04-10T00:36:53;9.91;82.44
75685;HTU21D;64298;46.050;38.164;2023-04-10T00:39:18;9.90;82.44
75685;HTU21D;64298;46.050;38.164;2023-04-10T00:41:45;9.88;82.32
75685;HTU21D;64298;46.050;38.164;2023-04-10T00:44:14;9.88;82.59
75685;HTU21D;64298;46.050;38.164;2023-04-10T00:46:41;9.82;82.54
75685;HTU21D;64298;46.050;38.164;2023-04-10T00:49:09;9.79;82.52
75685;HTU21D;64298;46.050;38.164;2023-04-10T00:51:36;9.76;82.56
75685;HTU21D;64298;46.050;38.164;2023-04-10T00:54:02;9.75;82.56
75685;HTU21D;64298;46.050;38.164;2023-04-10T00:56:29;9.71;82.73
75685;HTU21D;64298;46.050;38.164;2023-04-10T00:58:59;9.65;82.92
75685;HTU21D;64298;46.050;38.164;2023-04-10T01:01:27;9.63;82.81
75685;HTU21D;64298;46.050;38.164;2023-04-10T01:03:54;9.61;82.87
75685;HTU21D;64298;46.050;38.164;2023-04-10T01:10:06;9.54;83.02
75685;HTU21D;64298;46.050;38.164;2023-04-10T01:15:15;9.48;83.20
75685;HTU21D;64298;46.050;38.164;2023-04-10T01:20:31;9.46;83.25
75685;HTU21D;64298;46.050;38.164;2023-04-10T01:26:07;9.40;83.10
75685;HTU21D;64298;46.050;38.164;2023-04-10T01:28:50;9.37;83.36
75685;HTU21D;64298;46.050;38.164;2023-04-10T01:31:29;9.36;83.28
75685;HTU21D;64298;46.050;38.164;2023-04-10T01:34:01;9.34;83.27
75685;HTU21D;64298;46.050;38.164;2023-04-10T01:36:33;9.33;83.20
75685;HTU21D;64298;46.050;38.164;2023-04-10T01:39:04;9.31;83.26
75685;HTU21D;64298;46.050;38.164;2023-04-10T01:41:43;9.29;83.31
75685;HTU21D;64298;46.050;38.164;2023-04-10T01:44:30;9.25;83.32
75685;HTU21D;64298;46.050;38.164;2023-04-10T01:47:00;9.26;83.42
75685;HTU21D;64298;46.050;38.164;2023-04-10T01:49:29;9.26;83.28
75685;HTU21D;64298;46.050;38.164;2023-04-10T01:52:04;9.26;83.26
75685;HTU21D;64298;46.050;38.164;2023-04-10T01:54:32;9.26;83.52
75685;HTU21D;64298;46.050;38.164;2023-04-10T01:57:00;9.26;83.58
75685;HTU21D;64298;46.050;38.164;2023-04-10T01:59:37;9.26;83.61
75685;HTU21D;64298;46.050;38.164;2023-04-10T02:02:06;9.27;83.74
75685;HTU21D;64298;46.050;38.164;2023-04-10T02:04:32;9.27;83.66
75685;HTU21D;64298;46.050;38.164;2023-04-10T02:10:30;9.30;84.45
75685;HTU21D;64298;46.050;38.164;2023-04-10T02:13:05;9.30;84.77
75685;HTU21D;64298;46.050;38.164;2023-04-10T02:15:31;9.31;84.90
75685;HTU21D;64298;46.050;38.164;2023-04-10T02:17:59;9.31;85.16
75685;HTU21D;64298;46.050;38.164;2023-04-10T02:20:29;9.33;85.00
75685;HTU21D;64298;46.050;38.164;2023-04-10T02:22:57;9.34;84.97
75685;HTU21D;64298;46.050;38.164;2023-04-10T02:25:43;9.38;85.22
75685;HTU21D;64298;46.050;38.164;2023-04-10T02:28:12;9.37;85.62
75685;HTU21D;64298;46.050;38.164;2023-04-10T02:30:37;9.35;85.55
75685;HTU21D;64298;46.050;38.164;2023-04-10T02:33:04;9.35;85.92
75685;HTU21D;64298;46.050;38.164;2023-04-10T02:35:31;9.34;86.12
75685;HTU21D;64298;46.050;38.164;2023-04-10T02:38:18;9.32;86.51
75685;HTU21D;64298;46.050;38.164;2023-04-10T02:40:49;9.32;86.70
75685;HTU21D;64298;46.050;38.164;2023-04-10T02:43:16;9.32;87.03
75685;HTU21D;64298;46.050;38.164;2023-04-10T02:45:45;9.34;86.95
75685;HTU21D;64298;46.050;38.164;2023-04-10T02:48:16;9.35;86.97
75685;HTU21D;64298;46.050;38.164;2023-04-10T02:50:46;9.35;87.02
75685;HTU21D;64298;46.050;38.164;2023-04-10T02:53:15;9.35;86.94
75685;HTU21D;64298;46.050;38.164;2023-04-10T02:55:41;9.35;86.88
75685;HTU21D;64298;46.050;38.164;2023-04-10T02:58:07;9.35;86.91
75685;HTU21D;64298;46.050;38.164;2023-04-10T03:00:33;9.33;86.97
75685;HTU21D;64298;46.050;38.164;2023-04-10T03:03:18;9.31;87.09
75685;HTU21D;64298;46.050;38.164;2023-04-10T03:05:52;9.30;87.07
75685;HTU21D;64298;46.050;38.164;2023-04-10T03:08:28;9.29;86.92
75685;HTU21D;64298;46.050;38.164;2023-04-10T03:10:55;9.30;86.86
75685;HTU21D;64298;46.050;38.164;2023-04-10T03:13:25;9.30;86.86
75685;HTU21D;64298;46.050;38.164;2023-04-10T03:15:54;9.30;86.86
75685;HTU21D;64298;46.050;38.164;2023-04-10T03:18:25;9.30;86.98
75685;HTU21D;64298;46.050;38.164;2023-04-10T03:20:54;9.33;87.05
75685;HTU21D;64298;46.050;38.164;2023-04-10T03:23:23;9.33;87.07
75685;HTU21D;64298;46.050;38.164;2023-04-10T03:25:52;9.34;87.14
75685;HTU21D;64298;46.050;38.164;2023-04-10T03:28:21;9.34;87.19
75685;HTU21D;64298;46.050;38.164;2023-04-10T03:30:50;9.34;87.25
75685;HTU21D;64298;46.050;38.164;2023-04-10T03:33:19;9.37;87.32
75685;HTU21D;64298;46.050;38.164;2023-04-10T03:35:46;9.38;87.34
75685;HTU21D;64298;46.050;38.164;2023-04-10T03:38:12;9.40;87.44
75685;HTU21D;64298;46.050;38.164;2023-04-10T03:40:44;9.41;87.57
75685;HTU21D;64298;46.050;38.164;2023-04-10T03:43:14;9.40;87.57
75685;HTU21D;64298;46.050;38.164;2023-04-10T03:45:43;9.45;87.61
75685;HTU21D;64298;46.050;38.164;2023-04-10T03:48:13;9.45;87.69
75685;HTU21D;64298;46.050;38.164;2023-04-10T03:50:45;9.47;87.71
75685;HTU21D;64298;46.050;38.164;2023-04-10T03:53:14;9.49;87.73
75685;HTU21D;64298;46.050;38.164;2023-04-10T03:55:41;9.51;87.73
75685;HTU21D;64298;46.050;38.164;2023-04-10T03:58:11;9.52;87.80
75685;HTU21D;64298;46.050;38.164;2023-04-10T04:00:41;9.54;87.73
75685;HTU21D;64298;46.050;38.164;2023-04-10T04:03:26;9.59;87.76
75685;HTU21D;64298;46.050;38.164;2023-04-10T04:05:58;9.63;87.68
75685;HTU21D;64298;46.050;38.164;2023-04-10T04:08:40;9.64;87.65
75685;HTU21D;64298;46.050;38.164;2023-04-10T04:11:09;9.65;87.84
75685;HTU21D;64298;46.050;38.164;2023-04-10T04:13:50;9.66;87.91
75685;HTU21D;64298;46.050;38.164;2023-04-10T04:16:44;9.70;87.99
75685;HTU21D;64298;46.050;38.164;2023-04-10T04:19:27;9.74;87.94
75685;HTU21D;64298;46.050;38.164;2023-04-10T04:22:22;9.78;87.93
75685;HTU21D;64298;46.050;38.164;2023-04-10T04:25:26;9.77;87.96
75685;HTU21D;64298;46.050;38.164;2023-04-10T04:28:13;9.77;88.17
75685;HTU21D;64298;46.050;38.164;2023-04-10T04:31:00;9.78;88.31
75685;HTU21D;64298;46.050;38.164;2023-04-10T04:34:01;9.84;88.25
75685;HTU21D;64298;46.050;38.164;2023-04-10T04:37:01;9.93;88.12
75685;HTU21D;64298;46.050;38.164;2023-04-10T04:39:48;10.03;87.88
75685;HTU21D;64298;46.050;38.164;2023-04-10T04:42:39;10.13;87.80
75685;HTU21D;64298;46.050;38.164;2023-04-10T04:45:23;10.19;87.69
75685;HTU21D;64298;46.050;38.164;2023-04-10T04:48:16;10.21;87.69
75685;HTU21D;64298;46.050;38.164;2023-04-10T04:50:59;10.19;87.66
75685;HTU21D;64298;46.050;38.164;2023-04-10T04:53:39;10.20;87.66
75685;HTU21D;64298;46.050;38.164;2023-04-10T04:56:26;10.18;87.68
75685;HTU21D;64298;46.050;38.164;2023-04-10T04:59:25;10.15;87.70
75685;HTU21D;64298;46.050;38.164;2023-04-10T05:02:14;10.19;87.65
75685;HTU21D;64298;46.050;38.164;2023-04-10T05:05:02;10.21;87.48
75685;HTU21D;64298;46.050;38.164;2023-04-10T05:07:48;10.19;87.35
75685;HTU21D;64298;46.050;38.164;2023-04-10T05:10:49;10.20;87.38
75685;HTU21D;64298;46.050;38.164;2023-04-10T05:13:34;10.25;87.26
75685;HTU21D;64298;46.050;38.164;2023-04-10T05:16:18;10.22;87.08
75685;HTU21D;64298;46.050;38.164;2023-04-10T05:19:20;10.19;87.15
75685;HTU21D;64298;46.050;38.164;2023-04-10T05:21:55;10.19;87.23
75685;HTU21D;64298;46.050;38.164;2023-04-10T05:24:43;10.25;87.25
75685;HTU21D;64298;46.050;38.164;2023-04-10T05:27:35;10.30;87.17
75685;HTU21D;64298;46.050;38.164;2023-04-10T05:30:24;10.37;87.06
75685;HTU21D;64298;46.050;38.164;2023-04-10T05:33:11;10.41;86.83
75685;HTU21D;64298;46.050;38.164;2023-04-10T05:35:56;10.41;86.81
75685;HTU21D;64298;46.050;38.164;2023-04-10T05:38:40;10.49;86.79
75685;HTU21D;64298;46.050;38.164;2023-04-10T05:41:25;10.52;86.67
75685;HTU21D;64298;46.050;38.164;2023-04-10T05:44:11;10.60;86.53
75685;HTU21D;64298;46.050;38.164;2023-04-10T05:47:04;10.69;86.32
75685;HTU21D;64298;46.050;38.164;2023-04-10T05:49:51;10.77;86.11
75685;HTU21D;64298;46.050;38.164;2023-04-10T05:52:19;10.81;86.01
75685;HTU21D;64298;46.050;38.164;2023-04-10T05:54:50;10.86;85.87
75685;HTU21D;64298;46.050;38.164;2023-04-10T05:57:46;10.89;85.88
75685;HTU21D;64298;46.050;38.164;2023-04-10T06:00:34;10.95;85.85
75685;HTU21D;64298;46.050;38.164;2023-04-10T06:03:27;10.99;85.90
75685;HTU21D;64298;46.050;38.164;2023-04-10T06:06:02;11.03;85.96
75685;HTU21D;64298;46.050;38.164;2023-04-10T06:08:32;11.08;86.03
75685;HTU21D;64298;46.050;38.164;2023-04-10T06:11:02;11.13;86.00
75685;HTU21D;64298;46.050;38.164;2023-04-10T06:13:30;11.19;85.87
75685;HTU21D;64298;46.050;38.164;2023-04-10T06:15:58;11.31;85.74
75685;HTU21D;64298;46.050;38.164;2023-04-10T06:18:30;11.41;85.51
75685;HTU21D;64298;46.050;38.164;2023-04-10T06:20:58;11.51;85.32
75685;HTU21D;64298;46.050;38.164;2023-04-10T06:23:34;11.61;85.07
75685;HTU21D;64298;46.050;38.164;2023-04-10T06:26:20;11.71;84.87
75685;HTU21D;64298;46.050;38.164;2023-04-10T06:28:48;11.85;84.56
75685;HTU21D;64298;46.050;38.164;2023-04-10T06:31:16;12.02;84.09
75685;HTU21D;64298;46.050;38.164;2023-04-10T06:33:43;12.19;83.70
75685;HTU21D;64298;46.050;38.164;2023-04-10T06:36:12;12.33;83.45
75685;HTU21D;64298;46.050;38.164;2023-04-10T06:38:47;12.42;82.95
75685;HTU21D;64298;46.050;38.164;2023-04-10T06:41:16;12.53;82.46
75685;HTU21D;64298;46.050;38.164;2023-04-10T06:43:41;12.66;82.01
75685;HTU21D;64298;46.050;38.164;2023-04-10T06:46:07;12.87;81.48
75685;HTU21D;64298;46.050;38.164;2023-04-10T06:48:36;13.08;80.51
75685;HTU21D;64298;46.050;38.164;2023-04-10T06:51:02;13.27;79.82
75685;HTU21D;64298;46.050;38.164;2023-04-10T06:53:30;13.40;79.19
75685;HTU21D;64298;46.050;38.164;2023-04-10T06:55:57;13.50;79.08
75685;HTU21D;64298;46.050;38.164;2023-04-10T06:58:25;13.59;78.83
75685;HTU21D;64298;46.050;38.164;2023-04-10T07:00:51;13.54;78.46
75685;HTU21D;64298;46.050;38.164;2023-04-10T07:03:20;13.55;78.63
75685;HTU21D;64298;46.050;38.164;2023-04-10T07:05:45;13.60;77.98
75685;HTU21D;64298;46.050;38.164;2023-04-10T07:08:14;13.71;77.52
75685;HTU21D;64298;46.050;38.164;2023-04-10T07:10:42;13.84;77.27
75685;HTU21D;64298;46.050;38.164;2023-04-10T07:13:08;13.82;77.05
75685;HTU21D;64298;46.050;38.164;2023-04-10T07:15:34;13.71;77.31
75685;HTU21D;64298;46.050;38.164;2023-04-10T07:18:00;13.71;77.53
75685;HTU21D;64298;46.050;38.164;2023-04-10T07:20:26;13.77;77.42
75685;HTU21D;64298;46.050;38.164;2023-04-10T07:22:52;13.86;77.39
75685;HTU21D;64298;46.050;38.164;2023-04-10T07:25:21;14.05;77.30
75685;HTU21D;64298;46.050;38.164;2023-04-10T07:27:46;14.25;76.61
75685;HTU21D;64298;46.050;38.164;2023-04-10T07:30:12;14.34;76.17
75685;HTU21D;64298;46.050;38.164;2023-04-10T07:32:38;14.37;76.09
75685;HTU21D;64298;46.050;38.164;2023-04-10T07:35:12;14.42;75.80
75685;HTU21D;64298;46.050;38.164;2023-04-10T07:37:41;14.54;75.60
75685;HTU21D;64298;46.050;38.164;2023-04-10T07:40:11;14.72;75.63
75685;HTU21D;64298;46.050;38.164;2023-04-10T07:42:37;15.00;74.96
75685;HTU21D;64298;46.050;38.164;2023-04-10T07:45:06;15.21;73.80
75685;HTU21D;64298;46.050;38.164;2023-04-10T07:47:32;15.27;73.77
75685;HTU21D;64298;46.050;38.164;2023-04-10T07:50:04;15.32;73.26
75685;HTU21D;64298;46.050;38.164;2023-04-10T07:52:30;15.28;72.85
75685;HTU21D;64298;46.050;38.164;2023-04-10T07:54:56;15.17;72.90
75685;HTU21D;64298;46.050;38.164;2023-04-10T07:57:25;15.15;73.15
75685;HTU21D;64298;46.050;38.164;2023-04-10T07:59:51;15.22;73.36
75685;HTU21D;64298;46.050;38.164;2023-04-10T08:02:16;15.34;73.09
75685;HTU21D;64298;46.050;38.164;2023-04-10T08:04:42;15.46;71.89
75685;HTU21D;64298;46.050;38.164;2023-04-10T08:07:08;15.67;71.84
75685;HTU21D;64298;46.050;38.164;2023-04-10T08:09:34;15.85;71.00
75685;HTU21D;64298;46.050;38.164;2023-04-10T08:12:03;16.10;70.97
75685;HTU21D;64298;46.050;38.164;2023-04-10T08:14:29;16.22;70.52
75685;HTU21D;64298;46.050;38.164;2023-04-10T08:16:55;16.14;70.24
75685;HTU21D;64298;46.050;38.164;2023-04-10T08:19:23;16.02;70.85
75685;HTU21D;64298;46.050;38.164;2023-04-10T08:21:49;15.91;70.48
75685;HTU21D;64298;46.050;38.164;2023-04-10T08:24:17;15.92;70.79
75685;HTU21D;64298;46.050;38.164;2023-04-10T08:26:48;16.10;70.61
75685;HTU21D;64298;46.050;38.164;2023-04-10T08:29:14;16.25;69.68
75685;HTU21D;64298;46.050;38.164;2023-04-10T08:31:40;16.43;69.87
75685;HTU21D;64298;46.050;38.164;2023-04-10T08:34:08;16.63;69.47
75685;HTU21D;64298;46.050;38.164;2023-04-10T08:36:35;16.65;69.11
75685;HTU21D;64298;46.050;38.164;2023-04-10T08:39:03;16.70;69.09
75685;HTU21D;64298;46.050;38.164;2023-04-10T08:41:31;16.80;68.95
75685;HTU21D;64298;46.050;38.164;2023-04-10T08:43:57;16.93;68.36
75685;HTU21D;64298;46.050;38.164;2023-04-10T08:46:23;17.10;68.47
75685;HTU21D;64298;46.050;38.164;2023-04-10T08:48:57;17.32;67.54
75685;HTU21D;64298;46.050;38.164;2023-04-10T08:51:28;17.50;67.31
75685;HTU21D;64298;46.050;38.164;2023-04-10T08:54:05;17.52;66.77
75685;HTU21D;64298;46.050;38.164;2023-04-10T08:56:34;17.53;66.30
75685;HTU21D;64298;46.050;38.164;2023-04-10T08:59:05;17.59;66.62
75685;HTU21D;64298;46.050;38.164;2023-04-10T09:01:32;17.61;66.27
75685;HTU21D;64298;46.050;38.164;2023-04-10T09:04:03;17.65;65.80
75685;HTU21D;64298;46.050;38.164;2023-04-10T09:06:48;17.69;65.65
75685;HTU21D;64298;46.050;38.164;2023-04-10T09:09:14;17.80;65.84
75685;HTU21D;64298;46.050;38.164;2023-04-10T09:14:32;17.77;64.76
75685;HTU21D;64298;46.050;38.164;2023-04-10T09:17:16;17.88;64.64
75685;HTU21D;64298;46.050;38.164;2023-04-10T09:19:44;18.03;63.73
75685;HTU21D;64298;46.050;38.164;2023-04-10T09:22:11;18.27;64.12
75685;HTU21D;64298;46.050;38.164;2023-04-10T09:24:45;18.53;62.57
75685;HTU21D;64298;46.050;38.164;2023-04-10T09:27:31;18.62;62.26
75685;HTU21D;64298;46.050;38.164;2023-04-10T09:30:03;18.65;61.50
75685;HTU21D;64298;46.050;38.164;2023-04-10T09:32:43;18.79;61.14
75685;HTU21D;64298;46.050;38.164;2023-04-10T09:35:13;18.91;60.72
75685;HTU21D;64298;46.050;38.164;2023-04-10T09:37:44;18.99;60.25
75685;HTU21D;64298;46.050;38.164;2023-04-10T09:40:23;19.10;59.92
75685;HTU21D;64298;46.050;38.164;2023-04-10T09:42:52;19.01;60.01
75685;HTU21D;64298;46.050;38.164;2023-04-10T09:45:24;18.99;59.64
75685;HTU21D;64298;46.050;38.164;2023-04-10T09:48:06;19.11;60.05
75685;HTU21D;64298;46.050;38.164;2023-04-10T09:50:34;19.10;58.90
75685;HTU21D;64298;46.050;38.164;2023-04-10T09:53:00;19.06;59.01
75685;HTU21D;64298;46.050;38.164;2023-04-10T09:55:30;18.99;58.56
75685;HTU21D;64298;46.050;38.164;2023-04-10T09:57:56;19.06;58.04
75685;HTU21D;64298;46.050;38.164;2023-04-10T10:00:41;19.00;58.09
75685;HTU21D;64298;46.050;38.164;2023-04-10T10:03:11;19.00;57.75
75685;HTU21D;64298;46.050;38.164;2023-04-10T10:05:44;19.09;58.28
75685;HTU21D;64298;46.050;38.164;2023-04-10T10:08:12;19.29;57.27
75685;HTU21D;64298;46.050;38.164;2023-04-10T10:10:50;19.44;57.06
75685;HTU21D;64298;46.050;38.164;2023-04-10T10:13:37;19.60;56.52
75685;HTU21D;64298;46.050;38.164;2023-04-10T10:16:19;19.72;56.59
75685;HTU21D;64298;46.050;38.164;2023-04-10T10:19:12;19.82;55.65
75685;HTU21D;64298;46.050;38.164;2023-04-10T10:21:46;19.76;55.36
75685;HTU21D;64298;46.050;38.164;2023-04-10T10:24:12;19.74;55.20
75685;HTU21D;64298;46.050;38.164;2023-04-10T10:26:39;19.73;54.68
75685;HTU21D;64298;46.050;38.164;2023-04-10T10:29:08;19.92;54.87
75685;HTU21D;64298;46.050;38.164;2023-04-10T10:31:38;20.11;54.91
75685;HTU21D;64298;46.050;38.164;2023-04-10T10:34:08;20.16;54.04
75685;HTU21D;64298;46.050;38.164;2023-04-10T10:36:52;20.13;53.77
75685;HTU21D;64298;46.050;38.164;2023-04-10T10:44:59;19.90;53.61
75685;HTU21D;64298;46.050;38.164;2023-04-10T10:47:33;19.91;53.33
75685;HTU21D;64298;46.050;38.164;2023-04-10T10:50:06;19.90;53.49
75685;HTU21D;64298;46.050;38.164;2023-04-10T10:52:47;19.95;53.72
75685;HTU21D;64298;46.050;38.164;2023-04-10T10:55:27;20.02;53.35
75685;HTU21D;64298;46.050;38.164;2023-04-10T10:58:03;20.04;52.96
75685;HTU21D;64298;46.050;38.164;2023-04-10T11:05:53;19.76;53.31
75685;HTU21D;64298;46.050;38.164;2023-04-10T11:08:35;19.73;53.87
75685;HTU21D;64298;46.050;38.164;2023-04-10T11:11:03;19.80;53.67
75685;HTU21D;64298;46.050;38.164;2023-04-10T11:13:37;19.79;53.52
75685;HTU21D;64298;46.050;38.164;2023-04-10T11:16:09;19.80;53.83
75685;HTU21D;64298;46.050;38.164;2023-04-10T11:21:22;19.75;53.99
75685;HTU21D;64298;46.050;38.164;2023-04-10T11:24:06;19.74;53.04
75685;HTU21D;64298;46.050;38.164;2023-04-10T11:26:42;19.82;53.37
75685;HTU21D;64298;46.050;38.164;2023-04-10T11:31:43;19.98;53.15
75685;HTU21D;64298;46.050;38.164;2023-04-10T11:34:10;20.04;53.26
75685;HTU21D;64298;46.050;38.164;2023-04-10T11:36:43;20.11;52.86
75685;HTU21D;64298;46.050;38.164;2023-04-10T11:39:34;20.12;52.90
75685;HTU21D;64298;46.050;38.164;2023-04-10T11:42:00;20.09;53.09
75685;HTU21D;64298;46.050;38.164;2023-04-10T11:44:28;19.98;52.26
75685;HTU21D;64298;46.050;38.164;2023-04-10T11:47:02;19.87;52.62
75685;HTU21D;64298;46.050;38.164;2023-04-10T11:49:30;19.84;52.56
75685;HTU21D;64298;46.050;38.164;2023-04-10T11:51:57;19.81;52.65
75685;HTU21D;64298;46.050;38.164;2023-04-10T11:54:27;19.80;52.83
75685;HTU21D;64298;46.050;38.164;2023-04-10T11:57:05;19.82;53.00
75685;HTU21D;64298;46.050;38.164;2023-04-10T11:59:36;19.82;53.14
75685;HTU21D;64298;46.050;38.164;2023-04-10T12:02:10;19.72;52.91
75685;HTU21D;64298;46.050;38.164;2023-04-10T12:04:42;19.60;52.96
75685;HTU21D;64298;46.050;38.164;2023-04-10T12:07:08;19.46;52.53
75685;HTU21D;64298;46.050;38.164;2023-04-10T12:09:42;19.33;52.98
75685;HTU21D;64298;46.050;38.164;2023-04-10T12:12:08;19.29;53.24
75685;HTU21D;64298;46.050;38.164;2023-04-10T12:14:41;19.30;53.62
75685;HTU21D;64298;46.050;38.164;2023-04-10T12:17:10;19.30;53.57
75685;HTU21D;64298;46.050;38.164;2023-04-10T12:19:40;19.28;53.58
75685;HTU21D;64298;46.050;38.164;2023-04-10T12:22:06;19.30;53.95
75685;HTU21D;64298;46.050;38.164;2023-04-10T12:25:04;19.32;54.10
75685;HTU21D;64298;46.050;38.164;2023-04-10T12:27:33;19.32;54.16
75685;HTU21D;64298;46.050;38.164;2023-04-10T12:30:06;19.33;54.47
75685;HTU21D;64298;46.050;38.164;2023-04-10T12:32:38;19.32;54.36
75685;HTU21D;64298;46.050;38.164;2023-04-10T12:35:40;19.32;54.76
75685;HTU21D;64298;46.050;38.164;2023-04-10T12:38:15;19.27;54.43
75685;HTU21D;64298;46.050;38.164;2023-04-10T12:40:59;19.22;54.59
75685;HTU21D;64298;46.050;38.164;2023-04-10T12:43:35;19.21;54.94
75685;HTU21D;64298;46.050;38.164;2023-04-10T12:46:08;19.21;55.04
75685;HTU21D;64298;46.050;38.164;2023-04-10T12:48:55;19.15;55.17
75685;HTU21D;64298;46.050;38.164;2023-04-10T12:51:50;19.12;55.58
75685;HTU21D;64298;46.050;38.164;2023-04-10T12:54:32;19.12;55.90
75685;HTU21D;64298;46.050;38.164;2023-04-10T12:57:04;19.11;56.14
75685;HTU21D;64298;46.050;38.164;2023-04-10T12:59:37;19.10;56.33
75685;HTU21D;64298;46.050;38.164;2023-04-10T13:02:06;19.10;56.46
75685;HTU21D;64298;46.050;38.164;2023-04-10T13:04:36;19.09;56.39
75685;HTU21D;64298;46.050;38.164;2023-04-10T13:07:02;19.05;56.19
75685;HTU21D;64298;46.050;38.164;2023-04-10T13:09:31;19.02;56.22
75685;HTU21D;64298;46.050;38.164;2023-04-10T13:11:57;18.99;56.19
75685;HTU21D;64298;46.050;38.164;2023-04-10T13:14:23;18.96;56.40
75685;HTU21D;64298;46.050;38.164;2023-04-10T13:16:49;18.95;56.53
75685;HTU21D;64298;46.050;38.164;2023-04-10T13:19:35;18.94;56.48
75685;HTU21D;64298;46.050;38.164;2023-04-10T13:22:05;18.88;56.55
75685;HTU21D;64298;46.050;38.164;2023-04-10T13:24:33;18.83;56.64
75685;HTU21D;64298;46.050;38.164;2023-04-10T13:27:01;18.81;56.86
75685;HTU21D;64298;46.050;38.164;2023-04-10T13:29:34;18.80;56.96
75685;HTU21D;64298;46.050;38.164;2023-04-10T13:32:01;18.80;56.93
75685;HTU21D;64298;46.050;38.164;2023-04-10T13:34:33;18.80;56.94
75685;HTU21D;64298;46.050;38.164;2023-04-10T13:37:00;18.79;56.99
75685;HTU21D;64298;46.050;38.164;2023-04-10T13:39:28;18.80;56.93
75685;HTU21D;64298;46.050;38.164;2023-04-10T13:42:00;18.77;56.87
75685;HTU21D;64298;46.050;38.164;2023-04-10T13:44:29;18.74;56.95
75685;HTU21D;64298;46.050;38.164;2023-04-10T13:46:55;18.72;56.97
75685;HTU21D;64298;46.050;38.164;2023-04-10T13:49:22;18.69;56.97
75685;HTU21D;64298;46.050;38.164;2023-04-10T13:52:00;18.67;57.04
75685;HTU21D;64298;46.050;38.164;2023-04-10T13:54:26;18.64;57.05
75685;HTU21D;64298;46.050;38.164;2023-04-10T13:56:53;18.63;57.25
75685;HTU21D;64298;46.050;38.164;2023-04-10T13:59:23;18.59;57.29
75685;HTU21D;64298;46.050;38.164;2023-04-10T14:01:49;18.54;57.33
75685;HTU21D;64298;46.050;38.164;2023-04-10T14:04:17;18.51;57.23
75685;HTU21D;64298;46.050;38.164;2023-04-10T14:06:46;18.46;57.45
75685;HTU21D;64298;46.050;38.164;2023-04-10T14:09:12;18.42;57.60
75685;HTU21D;64298;46.050;38.164;2023-04-10T14:11:40;18.40;57.77
75685;HTU21D;64298;46.050;38.164;2023-04-10T14:14:06;18.37;57.88
75685;HTU21D;64298;46.050;38.164;2023-04-10T14:16:32;18.35;57.80
75685;HTU21D;64298;46.050;38.164;2023-04-10T14:18:58;18.34;57.95
75685;HTU21D;64298;46.050;38.164;2023-04-10T14:21:27;18.30;58.03
75685;HTU21D;64298;46.050;38.164;2023-04-10T14:23:53;18.26;58.02
75685;HTU21D;64298;46.050;38.164;2023-04-10T14:26:24;18.24;58.13
75685;HTU21D;64298;46.050;38.164;2023-04-10T14:28:53;18.20;58.14
75685;HTU21D;64298;46.050;38.164;2023-04-10T14:31:19;18.18;58.32
75685;HTU21D;64298;46.050;38.164;2023-04-10T14:33:45;18.17;58.45
75685;HTU21D;64298;46.050;38.164;2023-04-10T14:36:13;18.12;58.54
75685;HTU21D;64298;46.050;38.164;2023-04-10T14:38:39;18.12;58.63
75685;HTU21D;64298;46.050;38.164;2023-04-10T14:41:08;18.09;58.68
75685;HTU21D;64298;46.050;38.164;2023-04-10T14:43:34;18.06;58.80
75685;HTU21D;64298;46.050;38.164;2023-04-10T14:46:00;18.03;58.83
75685;HTU21D;64298;46.050;38.164;2023-04-10T14:48:29;18.02;58.96
75685;HTU21D;64298;46.050;38.164;2023-04-10T14:50:57;17.99;59.09
75685;HTU21D;64298;46.050;38.164;2023-04-10T14:53:23;17.96;59.12
75685;HTU21D;64298;46.050;38.164;2023-04-10T14:55:52;17.96;59.20
75685;HTU21D;64298;46.050;38.164;2023-04-10T14:58:22;17.91;59.28
75685;HTU21D;64298;46.050;38.164;2023-04-10T15:00:48;17.90;59.41
75685;HTU21D;64298;46.050;38.164;2023-04-10T15:03:15;17.91;59.53
75685;HTU21D;64298;46.050;38.164;2023-04-10T15:05:41;17.88;59.58
75685;HTU21D;64298;46.050;38.164;2023-04-10T15:08:09;17.89;59.73
75685;HTU21D;64298;46.050;38.164;2023-04-10T15:10:38;17.85;59.76
75685;HTU21D;64298;46.050;38.164;2023-04-10T15:13:06;17.83;59.77
75685;HTU21D;64298;46.050;38.164;2023-04-10T15:15:34;17.81;59.92
75685;HTU21D;64298;46.050;38.164;2023-04-10T15:18:21;17.80;60.03
75685;HTU21D;64298;46.050;38.164;2023-04-10T15:20:48;17.77;60.15
75685;HTU21D;64298;46.050;38.164;2023-04-10T15:23:14;17.78;60.41
75685;HTU21D;64298;46.050;38.164;2023-04-10T15:25:40;17.76;60.62
75685;HTU21D;64298;46.050;38.164;2023-04-10T15:28:08;17.73;60.95
75685;HTU21D;64298;46.050;38.164;2023-04-10T15:30:34;17.70;61.18
75685;HTU21D;64298;46.050;38.164;2023-04-10T15:33:00;17.69;61.59
75685;HTU21D;64298;46.050;38.164;2023-04-10T15:35:28;17.67;62.02
75685;HTU21D;64298;46.050;38.164;2023-04-10T15:38:02;17.63;62.44
75685;HTU21D;64298;46.050;38.164;2023-04-10T15:40:28;17.60;62.89
75685;HTU21D;64298;46.050;38.164;2023-04-10T15:42:56;17.54;63.14
75685;HTU21D;64298;46.050;38.164;2023-04-10T15:48:01;17.37;63.31
75685;HTU21D;64298;46.050;38.164;2023-04-10T15:50:29;17.26;62.20
75685;HTU21D;64298;46.050;38.164;2023-04-10T15:52:55;17.13;61.36
75685;HTU21D;64298;46.050;38.164;2023-04-10T15:55:24;17.04;61.25
75685;HTU21D;64298;46.050;38.164;2023-04-10T15:57:50;16.93;61.70
75685;HTU21D;64298;46.050;38.164;2023-04-10T16:00:16;16.87;62.24
75685;HTU21D;64298;46.050;38.164;2023-04-10T16:02:42;16.79;62.92
75685;HTU21D;64298;46.050;38.164;2023-04-10T16:05:10;16.74;63.57
75685;HTU21D;64298;46.050;38.164;2023-04-10T16:07:36;16.69;64.00
75685;HTU21D;64298;46.050;38.164;2023-04-10T16:10:07;16.62;64.50
75685;HTU21D;64298;46.050;38.164;2023-04-10T16:12:36;16.56;65.14